createdAt,value
2023-02-14T00:00:22.582Z,52.70
2023-02-14T00:02:49.394Z,57.28
2023-02-14T00:05:15.810Z,50.13
2023-02-14T00:07:42.212Z,47.50
2023-02-14T00:10:09.066Z,52.22
2023-02-14T00:15:20.016Z,43.88
2023-02-14T00:17:46.463Z,43.38
2023-02-14T00:20:12.776Z,42.75
2023-02-14T00:22:39.072Z,47.08
2023-02-14T00:25:05.542Z,50.50
2023-02-14T00:27:31.836Z,49.53
2023-02-14T00:30:03.205Z,44.38
2023-02-14T00:32:30.277Z,49.42
2023-02-14T00:34:56.982Z,46.38
2023-02-14T00:37:23.610Z,53.58
2023-02-14T00:39:52.653Z,51.63
2023-02-14T00:42:18.947Z,69.15
2023-02-14T00:44:45.474Z,94.88
2023-02-14T00:47:11.776Z,69.85
2023-02-14T00:49:38.090Z,59.28
2023-02-14T00:52:04.468Z,62.53
2023-02-14T00:54:30.873Z,66.57
2023-02-14T00:56:58.652Z,143.25
2023-02-14T00:59:25.204Z,353.05
2023-02-14T01:01:51.630Z,79.40
2023-02-14T01:04:18.323Z,85.78
2023-02-14T01:06:45.472Z,171.80
2023-02-14T01:09:13.006Z,296.70
2023-02-14T01:11:39.657Z,271.15
2023-02-14T01:14:06.579Z,394.90
2023-02-14T01:19:00.397Z,139.95
2023-02-14T01:21:28.381Z,137.25
2023-02-14T01:23:56.737Z,177.30
2023-02-14T01:26:23.289Z,216.55
2023-02-14T01:28:50.261Z,280.77
2023-02-14T01:31:21.563Z,221.55
2023-02-14T01:33:49.083Z,199.85
2023-02-14T01:36:20.277Z,159.70
2023-02-14T01:38:47.283Z,339.42
2023-02-14T01:41:14.117Z,154.70
2023-02-14T01:43:59.296Z,364.20
2023-02-14T01:46:27.000Z,324.02
2023-02-14T01:48:55.672Z,344.48
2023-02-14T01:51:22.346Z,324.52
2023-02-14T01:53:49.586Z,402.15
2023-02-14T01:56:19.592Z,265.65
2023-02-14T01:58:46.393Z,410.85
2023-02-14T02:01:13.445Z,358.55
2023-02-14T02:03:44.425Z,309.30
2023-02-14T02:06:10.761Z,303.80
2023-02-14T02:08:38.413Z,284.17
2023-02-14T02:11:04.847Z,210.90
2023-02-14T02:13:31.571Z,253.25
2023-02-14T02:16:16.612Z,345.15
2023-02-14T02:18:53.460Z,312.60
2023-02-14T02:21:31.121Z,297.73
2023-02-14T02:24:02.703Z,183.90
2023-02-14T02:26:47.813Z,173.70
2023-02-14T02:29:30.142Z,173.88
2023-02-14T02:32:06.999Z,173.18
2023-02-14T02:34:52.231Z,136.43
2023-02-14T02:37:38.792Z,224.80
2023-02-14T02:40:17.307Z,183.68
2023-02-14T02:42:57.716Z,217.77
2023-02-14T02:45:27.063Z,609.22
2023-02-14T02:47:56.031Z,452.63
2023-02-14T02:50:43.691Z,482.05
2023-02-14T02:53:19.487Z,298.38
2023-02-14T02:56:04.389Z,226.40
2023-02-14T02:58:35.453Z,272.63
2023-02-14T03:01:03.260Z,184.32
2023-02-14T03:03:50.311Z,206.55
2023-02-14T03:06:16.670Z,136.55
2023-02-14T03:08:45.011Z,399.13
2023-02-14T03:11:12.536Z,350.40
2023-02-14T03:13:43.827Z,291.08
2023-02-14T03:16:12.734Z,379.95
2023-02-14T03:19:10.123Z,295.60
2023-02-14T03:21:36.547Z,268.50
2023-02-14T03:24:02.993Z,301.88
2023-02-14T03:26:32.384Z,202.48
2023-02-14T03:29:08.002Z,275.30
2023-02-14T03:31:38.635Z,123.13
2023-02-14T03:34:24.896Z,185.10
2023-02-14T03:36:57.276Z,226.50
2023-02-14T03:39:47.081Z,159.07
2023-02-14T03:42:19.560Z,141.60
2023-02-14T03:44:47.428Z,284.45
2023-02-14T03:47:17.644Z,179.80
2023-02-14T03:49:46.792Z,167.98
2023-02-14T03:52:14.334Z,278.48
2023-02-14T03:54:40.720Z,221.13
2023-02-14T03:57:16.275Z,171.70
2023-02-14T03:59:42.944Z,148.90
2023-02-14T04:02:11.823Z,130.15
2023-02-14T04:04:40.544Z,109.90
2023-02-14T04:07:14.435Z,77.85
2023-02-14T04:09:40.858Z,65.68
2023-02-14T04:12:07.364Z,71.05
2023-02-14T04:14:33.711Z,64.00
2023-02-14T04:17:18.567Z,75.85
2023-02-14T04:19:44.910Z,107.10
2023-02-14T04:22:11.388Z,109.63
2023-02-14T04:24:37.733Z,137.63
2023-02-14T04:27:10.826Z,99.90
2023-02-14T04:29:43.407Z,97.78
2023-02-14T04:32:11.292Z,110.32
2023-02-14T04:34:37.864Z,352.90
2023-02-14T04:37:04.596Z,195.98
2023-02-14T04:39:30.906Z,170.20
2023-02-14T04:41:57.264Z,161.45
2023-02-14T04:44:23.852Z,106.47
2023-02-14T04:46:50.486Z,104.68
2023-02-14T04:49:16.901Z,119.28
2023-02-14T04:51:43.375Z,73.95
2023-02-14T04:54:09.750Z,143.18
2023-02-14T04:56:36.111Z,62.42
2023-02-14T04:59:02.432Z,52.50
2023-02-14T05:01:28.824Z,49.15
2023-02-14T05:03:55.333Z,46.00
2023-02-14T05:06:21.692Z,55.95
2023-02-14T05:08:48.017Z,51.38
2023-02-14T05:11:14.580Z,47.60
2023-02-14T05:13:40.937Z,92.20
2023-02-14T05:16:07.373Z,72.40
2023-02-14T05:18:33.720Z,60.60
2023-02-14T05:21:02.928Z,80.07
2023-02-14T05:23:31.924Z,182.55
2023-02-14T05:25:58.291Z,79.40
2023-02-14T05:28:24.631Z,111.88
2023-02-14T05:30:52.098Z,57.00
2023-02-14T05:33:18.519Z,50.40
2023-02-14T05:35:45.039Z,50.38
2023-02-14T05:38:14.019Z,48.67
2023-02-14T05:40:40.652Z,40.08
2023-02-14T05:43:07.328Z,36.88
2023-02-14T05:45:33.800Z,40.03
2023-02-14T05:48:00.310Z,47.10
2023-02-14T05:50:27.047Z,46.08
2023-02-14T05:52:53.917Z,44.25
2023-02-14T05:55:20.345Z,39.13
2023-02-14T05:57:47.058Z,39.17
2023-02-14T06:00:13.883Z,40.05
2023-02-14T06:05:06.853Z,37.38
2023-02-14T06:07:33.217Z,36.33
2023-02-14T06:09:59.571Z,39.55
2023-02-14T06:12:25.921Z,37.13
2023-02-14T06:14:52.348Z,47.40
2023-02-14T06:17:18.684Z,37.40
2023-02-14T06:19:45.037Z,37.33
2023-02-14T06:22:11.444Z,42.20
2023-02-14T06:24:37.841Z,41.55
2023-02-14T06:27:04.279Z,56.45
2023-02-14T06:29:30.732Z,66.78
2023-02-14T06:31:57.133Z,60.00
2023-02-14T06:34:23.493Z,60.33
2023-02-14T06:36:49.835Z,56.65
2023-02-14T06:39:16.178Z,54.88
2023-02-14T06:41:42.572Z,49.17
2023-02-14T06:44:10.311Z,53.30
2023-02-14T06:46:36.741Z,48.88
2023-02-14T06:49:03.130Z,54.00
2023-02-14T06:51:29.551Z,49.38
2023-02-14T06:53:55.969Z,46.50
2023-02-14T06:56:22.402Z,53.95
2023-02-14T06:58:48.771Z,52.25
2023-02-14T07:01:15.179Z,50.17
2023-02-14T07:03:42.043Z,48.15
2023-02-14T07:08:34.631Z,45.63
2023-02-14T07:11:01.423Z,43.65
2023-02-14T07:13:28.094Z,47.72
2023-02-14T07:15:54.542Z,43.03
2023-02-14T07:18:20.900Z,48.80
2023-02-14T07:20:47.289Z,48.22
2023-02-14T07:23:13.590Z,51.10
2023-02-14T07:25:40.717Z,48.08
2023-02-14T07:28:07.152Z,52.10
2023-02-14T07:30:33.588Z,42.40
2023-02-14T07:32:59.948Z,48.10
2023-02-14T07:35:26.360Z,50.55
2023-02-14T07:37:52.793Z,50.65
2023-02-14T07:40:20.010Z,47.53
2023-02-14T07:43:04.269Z,43.75
2023-02-14T07:45:30.568Z,45.95
2023-02-14T07:47:59.900Z,41.60
2023-02-14T07:50:26.301Z,40.72
2023-02-14T07:52:52.607Z,43.22
2023-02-14T07:55:19.357Z,41.80
2023-02-14T07:57:47.173Z,39.85
2023-02-14T08:00:14.950Z,41.13
2023-02-14T08:02:41.418Z,37.20
2023-02-14T08:05:08.050Z,33.75
2023-02-14T08:07:34.408Z,40.45
2023-02-14T08:10:00.713Z,35.22
2023-02-14T08:12:45.567Z,39.53
2023-02-14T08:15:30.517Z,35.13
2023-02-14T08:17:57.060Z,35.47
2023-02-14T08:20:23.482Z,39.10
2023-02-14T08:22:50.035Z,37.40
2023-02-14T08:25:16.341Z,39.95
2023-02-14T08:27:42.635Z,40.80
2023-02-14T08:30:09.193Z,40.25
2023-02-14T08:32:35.719Z,46.17
2023-02-14T08:35:02.168Z,43.88
2023-02-14T08:37:28.620Z,49.45
2023-02-14T08:39:54.971Z,47.70
2023-02-14T08:42:21.289Z,45.72
2023-02-14T08:44:47.768Z,43.47
2023-02-14T08:47:14.120Z,40.83
2023-02-14T08:49:40.464Z,46.83
2023-02-14T08:52:06.799Z,45.97
2023-02-14T08:54:33.961Z,42.53
2023-02-14T08:57:07.757Z,40.70
2023-02-14T08:59:34.468Z,42.33
2023-02-14T09:02:00.872Z,42.45
2023-02-14T09:04:27.413Z,42.00
2023-02-14T09:06:53.812Z,40.33
2023-02-14T09:09:20.504Z,42.35
2023-02-14T09:11:46.882Z,45.75
2023-02-14T09:14:13.425Z,44.10
2023-02-14T09:16:39.938Z,40.88
2023-02-14T09:19:06.401Z,43.10
2023-02-14T09:21:34.147Z,44.85
2023-02-14T09:24:00.500Z,43.95
2023-02-14T09:26:27.403Z,40.42
2023-02-14T09:28:53.739Z,41.67
2023-02-14T09:31:21.810Z,40.17
2023-02-14T09:34:07.811Z,42.38
2023-02-14T09:36:52.598Z,44.50
2023-02-14T09:39:19.156Z,42.20
2023-02-14T09:41:55.273Z,42.80
2023-02-14T09:44:24.430Z,43.15
2023-02-14T09:46:53.109Z,35.97
2023-02-14T09:49:23.725Z,40.22
2023-02-14T09:51:51.558Z,37.75
2023-02-14T09:54:23.665Z,38.72
2023-02-14T09:56:56.149Z,36.10
2023-02-14T09:59:22.739Z,35.95
2023-02-14T10:01:56.627Z,32.05
2023-02-14T10:04:28.952Z,33.10
2023-02-14T10:07:09.887Z,34.38
2023-02-14T10:09:39.312Z,32.95
2023-02-14T10:12:10.599Z,36.78
2023-02-14T10:14:40.816Z,33.95
2023-02-14T10:17:15.540Z,31.00
2023-02-14T10:19:44.236Z,34.13
2023-02-14T10:22:33.706Z,33.17
2023-02-14T10:25:06.918Z,28.50
2023-02-14T10:27:39.578Z,32.30
2023-02-14T10:30:14.793Z,31.58
2023-02-14T10:32:46.430Z,29.25
2023-02-14T10:35:24.804Z,28.88
2023-02-14T10:37:58.245Z,29.60
2023-02-14T10:40:39.879Z,32.53
2023-02-14T10:43:15.464Z,30.35
2023-02-14T10:45:47.351Z,34.70
2023-02-14T10:48:22.733Z,30.27
2023-02-14T10:50:55.317Z,29.58
2023-02-14T10:53:25.769Z,32.55
2023-02-14T10:55:57.210Z,31.05
2023-02-14T10:58:26.127Z,31.85
2023-02-14T11:01:02.110Z,31.02
2023-02-14T11:03:29.504Z,31.30
2023-02-14T11:05:56.041Z,29.33
2023-02-14T11:08:25.928Z,30.90
2023-02-14T11:10:53.834Z,31.83
2023-02-14T11:13:27.638Z,30.05
2023-02-14T11:15:54.150Z,27.52
2023-02-14T11:18:24.892Z,27.77
2023-02-14T11:21:02.829Z,30.17
2023-02-14T11:23:32.413Z,30.58
2023-02-14T11:26:00.721Z,33.42
2023-02-14T11:28:27.627Z,29.27
2023-02-14T11:35:50.338Z,27.05
2023-02-14T11:38:26.678Z,31.52
2023-02-14T11:40:55.076Z,27.15
2023-02-14T11:43:30.677Z,30.42
2023-02-14T11:46:15.065Z,30.90
2023-02-14T11:49:07.920Z,28.35
2023-02-14T11:51:35.952Z,30.08
2023-02-14T11:54:05.572Z,26.92
2023-02-14T11:56:47.103Z,27.88
2023-02-14T11:59:21.750Z,29.00
2023-02-14T12:01:48.168Z,29.85
2023-02-14T12:04:17.645Z,30.52
2023-02-14T12:06:45.715Z,27.98
2023-02-14T12:09:17.862Z,28.13
2023-02-14T12:11:54.559Z,28.52
2023-02-14T12:14:22.144Z,30.77
2023-02-14T12:17:07.205Z,27.63
2023-02-14T12:19:42.202Z,29.73
2023-02-14T12:22:12.951Z,27.75
2023-02-14T12:24:49.595Z,30.80
2023-02-14T12:27:27.992Z,30.83
2023-02-14T12:29:58.216Z,29.10
2023-02-14T12:32:26.042Z,31.40
2023-02-14T12:34:56.173Z,28.40
2023-02-14T12:37:22.486Z,27.80
2023-02-14T12:40:01.895Z,27.70
2023-02-14T12:42:34.421Z,27.58
2023-02-14T12:45:19.163Z,28.67
2023-02-14T12:47:45.438Z,27.58
2023-02-14T12:50:31.498Z,32.50
2023-02-14T12:53:16.384Z,27.80
2023-02-14T12:55:48.889Z,28.25
2023-02-14T12:58:18.380Z,26.83
2023-02-14T13:00:50.514Z,26.05
2023-02-14T13:03:35.444Z,26.52
2023-02-14T13:06:20.591Z,23.17
2023-02-14T13:08:46.983Z,30.00
2023-02-14T13:11:32.605Z,24.58
2023-02-14T13:14:17.616Z,25.30
2023-02-14T13:16:43.952Z,25.73
2023-02-14T13:21:37.441Z,23.90
2023-02-14T13:24:21.772Z,25.38
2023-02-14T13:26:56.272Z,22.23
2023-02-14T13:29:24.440Z,23.08
2023-02-14T13:31:52.688Z,22.40
2023-02-14T13:34:24.944Z,21.70
2023-02-14T13:36:51.557Z,23.45
2023-02-14T13:39:36.133Z,22.58
2023-02-14T13:42:04.944Z,22.92
2023-02-14T13:44:48.887Z,23.17
2023-02-14T13:47:16.773Z,24.65
2023-02-14T13:50:09.301Z,22.35
2023-02-14T13:52:38.762Z,25.48
2023-02-14T13:55:07.141Z,20.17
2023-02-14T13:57:36.355Z,21.85
2023-02-14T14:00:17.801Z,21.02
2023-02-14T14:02:47.069Z,20.73
2023-02-14T14:05:39.498Z,21.15
2023-02-14T14:08:17.983Z,23.13
2023-02-14T14:10:45.547Z,23.00
2023-02-14T14:13:31.804Z,20.25
2023-02-14T14:16:16.879Z,20.13
2023-02-14T14:18:44.011Z,19.85
2023-02-14T14:21:23.524Z,20.05
2023-02-14T14:24:02.517Z,22.30
2023-02-14T14:26:36.808Z,21.05
2023-02-14T14:29:10.886Z,22.52
2023-02-14T14:31:37.404Z,19.20
2023-02-14T14:34:03.857Z,21.50
2023-02-14T14:36:30.442Z,22.08
2023-02-14T14:38:56.862Z,23.83
2023-02-14T14:41:28.590Z,24.27
2023-02-14T14:43:55.028Z,22.10
2023-02-14T14:46:22.376Z,23.90
2023-02-14T14:48:50.728Z,23.05
2023-02-14T14:51:29.897Z,28.80
2023-02-14T14:54:19.756Z,23.27
2023-02-14T14:56:56.757Z,25.83
2023-02-14T14:59:23.168Z,22.77
2023-02-14T15:01:54.188Z,22.70
2023-02-14T15:04:30.538Z,23.40
2023-02-14T15:06:57.747Z,26.77
2023-02-14T15:09:31.654Z,25.63
2023-02-14T15:12:17.844Z,22.73
2023-02-14T15:14:46.353Z,27.60
2023-02-14T15:17:18.964Z,24.02
2023-02-14T15:19:47.268Z,25.27
2023-02-14T15:22:21.485Z,25.13
2023-02-14T15:24:48.319Z,27.70
2023-02-14T15:27:19.000Z,26.17
2023-02-14T15:29:56.427Z,26.73
2023-02-14T15:32:23.489Z,24.15
2023-02-14T15:34:49.924Z,25.83
2023-02-14T15:37:16.501Z,28.88
2023-02-14T15:44:46.718Z,26.45
2023-02-14T15:47:14.535Z,26.13
2023-02-14T15:49:42.672Z,25.75
2023-02-14T15:52:13.991Z,27.92
2023-02-14T15:54:47.249Z,28.58
2023-02-14T15:57:19.336Z,26.15
2023-02-14T15:59:45.734Z,26.27
2023-02-14T16:02:12.130Z,29.58
2023-02-14T16:04:38.552Z,25.45
2023-02-14T16:07:25.265Z,29.23
2023-02-14T16:10:12.559Z,27.08
2023-02-14T16:12:40.098Z,27.17
2023-02-14T16:15:15.624Z,28.25
2023-02-14T16:17:44.141Z,28.77
2023-02-14T16:20:22.804Z,26.95
2023-02-14T16:22:49.925Z,31.10
2023-02-14T16:25:16.401Z,28.45
2023-02-14T16:27:42.880Z,27.80
2023-02-14T16:30:17.516Z,27.45
2023-02-14T16:32:48.658Z,29.95
2023-02-14T16:35:18.046Z,27.35
2023-02-14T16:37:46.173Z,26.77
2023-02-14T16:40:14.282Z,29.13
2023-02-14T16:42:41.010Z,33.55
2023-02-14T16:47:33.719Z,29.58
2023-02-14T16:50:00.143Z,28.08
2023-02-14T16:52:27.635Z,30.52
2023-02-14T16:54:54.079Z,30.77
2023-02-14T16:57:22.962Z,31.65
2023-02-14T16:59:50.203Z,28.90
2023-02-14T17:02:18.915Z,27.92
2023-02-14T17:04:45.356Z,31.90
2023-02-14T17:07:12.568Z,31.30
2023-02-14T17:09:41.249Z,31.55
2023-02-14T17:12:13.193Z,31.90
2023-02-14T17:14:40.702Z,36.30
2023-02-14T17:17:07.143Z,27.95
2023-02-14T17:19:33.783Z,33.03
2023-02-14T17:22:00.316Z,31.88
2023-02-14T17:24:26.760Z,32.65
2023-02-14T17:26:53.138Z,30.48
2023-02-14T17:29:19.529Z,28.40
2023-02-14T17:31:45.944Z,32.28
2023-02-14T17:34:12.466Z,31.63
2023-02-14T17:36:38.820Z,33.00
2023-02-14T17:39:05.461Z,31.88
2023-02-14T17:41:32.091Z,30.02
2023-02-14T17:44:01.890Z,35.22
2023-02-14T17:46:28.885Z,36.05
2023-02-14T17:48:55.949Z,33.40
2023-02-14T17:51:22.578Z,33.75
2023-02-14T17:53:49.416Z,36.83
2023-02-14T17:58:44.225Z,37.22
2023-02-14T18:01:11.540Z,36.40
2023-02-14T18:03:38.805Z,68.88
2023-02-14T18:06:05.786Z,50.35
2023-02-14T18:08:36.865Z,37.90
2023-02-14T18:11:06.979Z,38.08
2023-02-14T18:13:33.909Z,41.72
2023-02-14T18:16:10.134Z,40.25
2023-02-14T18:18:36.988Z,40.72
2023-02-14T18:21:04.255Z,39.72
2023-02-14T18:23:31.088Z,37.92
2023-02-14T18:28:24.970Z,34.17
2023-02-14T18:30:52.070Z,36.90
2023-02-14T18:33:18.619Z,40.97
2023-02-14T18:35:45.305Z,35.13
2023-02-14T18:38:12.462Z,35.60
2023-02-14T18:40:39.617Z,37.05
2023-02-14T18:43:06.089Z,37.00
2023-02-14T18:45:38.814Z,38.97
2023-02-14T18:48:05.483Z,38.10
2023-02-14T18:50:33.370Z,37.13
2023-02-14T18:52:59.828Z,33.70
2023-02-14T18:55:26.248Z,34.92
2023-02-14T18:57:52.978Z,34.70
2023-02-14T19:02:45.775Z,33.80
2023-02-14T19:05:12.454Z,37.38
2023-02-14T19:07:38.840Z,38.55
2023-02-14T19:10:05.586Z,34.22
2023-02-14T19:12:33.216Z,39.78
2023-02-14T19:15:00.019Z,35.97
2023-02-14T19:17:26.519Z,36.10
2023-02-14T19:19:53.752Z,42.63
2023-02-14T19:22:20.892Z,44.33
2023-02-14T19:24:47.243Z,42.50
2023-02-14T19:27:13.654Z,38.13
2023-02-14T19:29:39.979Z,40.15
2023-02-14T19:32:06.375Z,43.22
2023-02-14T19:34:33.325Z,42.88
2023-02-14T19:39:29.555Z,40.33
2023-02-14T19:41:56.414Z,49.60
2023-02-14T19:46:54.326Z,43.25
2023-02-14T19:49:20.859Z,48.22
2023-02-14T19:51:53.819Z,40.13
2023-02-14T19:54:21.922Z,43.00
2023-02-14T19:56:48.343Z,38.78
2023-02-14T19:59:19.620Z,38.42
2023-02-14T20:01:47.059Z,39.88
2023-02-14T20:04:15.127Z,37.08
2023-02-14T20:06:42.371Z,35.90
2023-02-14T20:09:09.293Z,34.15
2023-02-14T20:14:03.309Z,37.63
2023-02-14T20:16:30.521Z,41.33
2023-02-14T20:18:57.449Z,43.75
2023-02-14T20:23:52.172Z,45.63
2023-02-14T20:28:44.891Z,41.70
2023-02-14T20:31:12.334Z,44.47
2023-02-14T20:33:38.947Z,47.22
2023-02-14T20:36:06.175Z,48.35
2023-02-14T20:38:33.412Z,47.65
2023-02-14T20:41:10.552Z,50.83
2023-02-14T20:43:37.439Z,46.58
2023-02-14T20:53:23.801Z,41.40
2023-02-14T20:58:16.388Z,41.13
2023-02-14T21:00:42.741Z,40.40
2023-02-14T21:03:09.071Z,41.75
2023-02-14T21:05:35.466Z,40.25
2023-02-14T21:08:01.872Z,39.70
2023-02-14T21:10:28.340Z,39.47
2023-02-14T21:12:55.263Z,41.83
2023-02-14T21:15:21.642Z,38.60
2023-02-14T21:17:47.989Z,43.97
2023-02-14T21:20:15.011Z,43.53
2023-02-14T21:22:41.308Z,43.65
2023-02-14T21:25:07.813Z,40.90
2023-02-14T21:27:34.212Z,39.53
2023-02-14T21:30:00.603Z,43.55
2023-02-14T21:32:28.531Z,39.55
2023-02-14T21:34:55.338Z,39.45
2023-02-14T21:37:22.415Z,40.00
2023-02-14T21:39:50.118Z,44.15
2023-02-14T21:42:18.398Z,38.53
2023-02-14T21:45:03.197Z,46.08
2023-02-14T21:47:29.601Z,44.78
2023-02-14T21:50:14.600Z,42.20
2023-02-14T21:52:40.967Z,41.40
2023-02-14T21:55:07.371Z,38.78
2023-02-14T21:57:33.972Z,37.95
2023-02-14T22:00:00.466Z,41.60
2023-02-14T22:02:26.971Z,36.65
2023-02-14T22:04:53.312Z,39.70
2023-02-14T22:07:19.616Z,35.30
2023-02-14T22:09:46.061Z,35.03
2023-02-14T22:12:12.434Z,37.67
2023-02-14T22:14:38.741Z,37.97
2023-02-14T22:17:05.130Z,40.28
2023-02-14T22:19:31.475Z,36.95
2023-02-14T22:21:57.827Z,36.97
2023-02-14T22:24:24.369Z,37.38
2023-02-14T22:26:50.669Z,35.83
2023-02-14T22:29:16.975Z,36.13
2023-02-14T22:31:43.610Z,36.55
2023-02-14T22:36:36.696Z,36.10
2023-02-14T22:39:03.800Z,37.38
2023-02-14T22:41:30.371Z,41.78
2023-02-14T22:43:57.331Z,43.17
2023-02-14T22:46:25.290Z,41.13
2023-02-14T22:48:52.111Z,37.58
2023-02-14T22:51:24.569Z,37.85
2023-02-14T22:53:52.178Z,40.33
2023-02-14T22:56:20.067Z,39.83
2023-02-14T22:58:46.618Z,42.05
2023-02-14T23:01:17.219Z,43.28
2023-02-14T23:03:44.270Z,41.10
2023-02-14T23:08:43.209Z,37.28
2023-02-14T23:11:14.272Z,35.53
2023-02-14T23:13:58.994Z,36.17
2023-02-14T23:16:44.209Z,34.88
2023-02-14T23:19:33.272Z,32.15
2023-02-14T23:22:02.992Z,36.70
2023-02-14T23:24:29.370Z,34.25
2023-02-14T23:26:55.725Z,37.58
2023-02-14T23:29:22.118Z,32.90
2023-02-14T23:31:48.679Z,37.33
2023-02-14T23:34:15.072Z,34.80
2023-02-14T23:36:41.431Z,31.42
2023-02-14T23:39:07.840Z,32.90
2023-02-14T23:41:49.830Z,32.92
2023-02-14T23:44:17.347Z,37.20
2023-02-14T23:46:44.112Z,37.42
2023-02-14T23:49:10.676Z,36.97
2023-02-14T23:51:37.359Z,35.88
2023-02-14T23:54:03.908Z,34.25
2023-02-14T23:56:30.274Z,39.17
2023-02-14T23:58:56.652Z,37.17
